Terminal Aerodrome Forecast
Issued by NWS

Home | Current Version | Previous Version | Text Only | Print | Product List | Glossary On
Versions: 1 2 3 4 5 6 7 8 9 10 11 12 13
000
FTUS45 KRIW 231721
TAFCPR
TAF
KCPR 231721Z 2318/2418 23012KT P6SM SCT150
     FM231900 23015G25KT P6SM FEW120 BKN250
     FM240000 22010KT P6SM SCT120 BKN200
     FM241400 24012KT P6SM SCT120 SCT200=

USA.gov is the U.S. government's official web portal to all federal, state and local government web resources and services.